PWSweather.com
Personal Weather Stations
Station Observations
GEELONGWX1
Bell Post Hill, GeelongAU

Bell Post HillGeelongAU

Lat: -38.101, Lon: 144.326

Elevation: 204

Station Type: Davis Vantage Pro2

http://www.geelongweather.com

High Low Average
Temperature 94.4°F34.7°F 67.2°F19.6°F 76.7°F24.8°F
Dew Point 69.9°F21.1°F 62.1°F16.7°F 66.2°F19.0°F
Winds 8.1 mph ENE13.0 mph ENE Calm Calm 2.9 mph 4.7 mph
Wind Gusts 13.8 mph22.2 mph -- 5.2 mph8.4 mph
Humidity 89% 44% 72%
Pressure 29.93 in1013.50 in 29.78 in1008.50 in -
Precipitation 0.00 in0.00 in - -
Hour Temp Dew Point Humidity Winds Wind Gusts Pressure Precip Precip Rate Daily Precip Total
12:00 AM 68.3°F20.2°C 64.6°F18.1°C 88% 1.2 mph 1.9 kmh 3.5 mph5.6 kmh 29.91 in1012.9 mb - 0.00 in0.0 mm 0.00 in0.0 mm
12:10 AM 68.3°F20.2°C 65.0°F18.3°C 89% 2.3 mph N3.7 kmh N 3.5 mph5.6 kmh 29.91 in1012.9 mb - 0.00 in0.0 mm 0.00 in0.0 mm
12:20 AM 68.3°F20.2°C 64.9°F18.3°C 89% 1.2 mph NNW1.9 kmh NNW 3.5 mph5.6 kmh 29.92 in1013.2 mb - 0.00 in0.0 mm 0.00 in0.0 mm
12:30 AM 68.3°F20.2°C 64.9°F18.3°C 89% 1.2 mph WNW1.9 kmh WNW 2.3 mph3.7 kmh 29.93 in1013.5 mb - 0.00 in0.0 mm 0.00 in0.0 mm
12:40 AM 68.2°F20.1°C 64.5°F18.1°C 88% 1.2 mph W1.9 kmh W 3.5 mph5.6 kmh 29.93 in1013.5 mb - 0.00 in0.0 mm 0.00 in0.0 mm
12:50 AM 68.0°F20.0°C 64.3°F17.9°C 88% 2.3 mph SW3.7 kmh SW 3.5 mph5.6 kmh 29.92 in1013.2 mb - 0.00 in0.0 mm 0.00 in0.0 mm
01:00 AM 68.0°F20.0°C 64.3°F17.9°C 88% 2.3 mph S3.7 kmh S 3.5 mph5.6 kmh 29.92 in1013.2 mb - 0.00 in0.0 mm 0.00 in0.0 mm
01:10 AM 67.9°F19.9°C 64.2°F17.9°C 88% 2.3 mph S3.7 kmh S 3.5 mph5.6 kmh 29.93 in1013.5 mb - 0.00 in0.0 mm 0.00 in0.0 mm
01:20 AM 67.9°F19.9°C 64.2°F17.9°C 88% 5.8 mph S9.3 kmh S 9.2 mph14.8 kmh 29.93 in1013.5 mb - 0.00 in0.0 mm 0.00 in0.0 mm
01:30 AM 67.9°F19.9°C 64.3°F17.9°C 88% 3.5 mph SSE5.6 kmh SSE 3.5 mph5.6 kmh 29.92 in1013.2 mb - 0.00 in0.0 mm 0.00 in0.0 mm
01:40 AM 68.0°F20.0°C 64.3°F17.9°C 88% 1.2 mph SE1.9 kmh SE 3.5 mph5.6 kmh 29.90 in1012.5 mb - 0.00 in0.0 mm 0.00 in0.0 mm
01:50 AM 68.0°F20.0°C 64.3°F17.9°C 88% 3.5 mph S5.6 kmh S 6.9 mph11.1 kmh 29.92 in1013.2 mb - 0.00 in0.0 mm 0.00 in0.0 mm
02:00 AM 68.1°F20.1°C 64.4°F18.0°C 88% 1.2 mph SSW1.9 kmh SSW 3.5 mph5.6 kmh 29.92 in1013.2 mb - 0.00 in0.0 mm 0.00 in0.0 mm
02:10 AM 68.1°F20.1°C 64.4°F18.0°C 88% Calm Calm -- 29.90 in1012.5 mb - 0.00 in0.0 mm 0.00 in0.0 mm
02:20 AM 68.2°F20.1°C 64.5°F18.1°C 88% Calm Calm 1.2 mph1.9 kmh 29.88 in1011.9 mb - 0.00 in0.0 mm 0.00 in0.0 mm
02:30 AM 68.2°F20.1°C 64.5°F18.1°C 88% 1.2 mph E1.9 kmh E 1.2 mph1.9 kmh 29.89 in1012.2 mb - 0.00 in0.0 mm 0.00 in0.0 mm
02:40 AM 68.2°F20.1°C 64.5°F18.1°C 88% Calm Calm 2.3 mph3.7 kmh 29.89 in1012.2 mb - 0.00 in0.0 mm 0.00 in0.0 mm
02:50 AM 68.4°F20.2°C 65.0°F18.3°C 89% Calm Calm -- 29.89 in1012.2 mb - 0.00 in0.0 mm 0.00 in0.0 mm
03:00 AM 68.4°F20.2°C 64.7°F18.2°C 88% Calm Calm -- 29.90 in1012.5 mb - 0.00 in0.0 mm 0.00 in0.0 mm
03:10 AM 68.5°F20.3°C 64.8°F18.2°C 88% 1.2 mph WSW1.9 kmh WSW 3.5 mph5.6 kmh 29.91 in1012.9 mb - 0.00 in0.0 mm 0.00 in0.0 mm
03:20 AM 68.5°F20.3°C 64.8°F18.2°C 88% 2.3 mph SSW3.7 kmh SSW 3.5 mph5.6 kmh 29.91 in1012.9 mb - 0.00 in0.0 mm 0.00 in0.0 mm
03:30 AM 68.5°F20.3°C 64.8°F18.2°C 88% Calm Calm -- 29.91 in1012.9 mb - 0.00 in0.0 mm 0.00 in0.0 mm
03:40 AM 68.5°F20.3°C 64.8°F18.2°C 88% 2.3 mph NNW3.7 kmh NNW 3.5 mph5.6 kmh 29.88 in1011.9 mb - 0.00 in0.0 mm 0.00 in0.0 mm
03:50 AM 68.4°F20.2°C 64.7°F18.2°C 88% 4.6 mph NNW7.4 kmh NNW 6.9 mph11.1 kmh 29.87 in1011.5 mb - 0.00 in0.0 mm 0.00 in0.0 mm
04:00 AM 68.3°F20.2°C 64.6°F18.1°C 88% 3.5 mph NW5.6 kmh NW 6.9 mph11.1 kmh 29.85 in1010.8 mb - 0.00 in0.0 mm 0.00 in0.0 mm
04:10 AM 68.4°F20.2°C 64.7°F18.2°C 88% 5.8 mph N9.3 kmh N 11.5 mph18.5 kmh 29.84 in1010.5 mb - 0.00 in0.0 mm 0.00 in0.0 mm
04:20 AM 68.5°F20.3°C 64.8°F18.2°C 88% 6.9 mph NNW11.1 kmh NNW 8.1 mph13.0 kmh 29.84 in1010.5 mb - 0.00 in0.0 mm 0.00 in0.0 mm
04:30 AM 68.8°F20.4°C 65.1°F18.4°C 88% 3.5 mph N5.6 kmh N 4.6 mph7.4 kmh 29.83 in1010.2 mb - 0.00 in0.0 mm 0.00 in0.0 mm
04:40 AM 69.0°F20.6°C 65.3°F18.5°C 88% 2.3 mph N3.7 kmh N 3.5 mph5.6 kmh 29.83 in1010.2 mb - 0.00 in0.0 mm 0.00 in0.0 mm
04:50 AM 69.1°F20.6°C 65.4°F18.6°C 88% 1.2 mph N1.9 kmh N 2.3 mph3.7 kmh 29.84 in1010.5 mb - 0.00 in0.0 mm 0.00 in0.0 mm
05:00 AM 69.3°F20.7°C 65.6°F18.7°C 88% 1.2 mph N1.9 kmh N 3.5 mph5.6 kmh 29.85 in1010.8 mb - 0.00 in0.0 mm 0.00 in0.0 mm
05:10 AM 69.5°F20.8°C 65.8°F18.8°C 88% 2.3 mph N3.7 kmh N 3.5 mph5.6 kmh 29.83 in1010.2 mb - 0.00 in0.0 mm 0.00 in0.0 mm
05:20 AM 69.6°F20.9°C 65.9°F18.8°C 88% 1.2 mph N1.9 kmh N 1.2 mph1.9 kmh 29.86 in1011.2 mb - 0.00 in0.0 mm 0.00 in0.0 mm
05:30 AM 69.7°F20.9°C 66.0°F18.9°C 88% 1.2 mph N1.9 kmh N 3.5 mph5.6 kmh 29.86 in1011.2 mb - 0.00 in0.0 mm 0.00 in0.0 mm
05:40 AM 69.8°F21.0°C 65.8°F18.8°C 87% 1.2 mph NE1.9 kmh NE 2.3 mph3.7 kmh 29.86 in1011.2 mb - 0.00 in0.0 mm 0.00 in0.0 mm
05:50 AM 69.8°F21.0°C 65.8°F18.8°C 87% 1.2 mph NE1.9 kmh NE 3.5 mph5.6 kmh 29.86 in1011.2 mb - 0.00 in0.0 mm 0.00 in0.0 mm
06:00 AM 70.0°F21.1°C 66.0°F18.9°C 87% 3.5 mph NNE5.6 kmh NNE 6.9 mph11.1 kmh 29.86 in1011.2 mb - 0.00 in0.0 mm 0.00 in0.0 mm
06:10 AM 70.1°F21.2°C 66.0°F18.9°C 87% 3.5 mph NE5.6 kmh NE 5.8 mph9.3 kmh 29.86 in1011.2 mb - 0.00 in0.0 mm 0.00 in0.0 mm
06:20 AM 70.2°F21.2°C 66.5°F19.2°C 88% 3.5 mph NE5.6 kmh NE 3.5 mph5.6 kmh 29.86 in1011.2 mb - 0.00 in0.0 mm 0.00 in0.0 mm
06:30 AM 70.4°F21.3°C 66.7°F19.3°C 88% 3.5 mph NE5.6 kmh NE 4.6 mph7.4 kmh 29.86 in1011.2 mb - 0.00 in0.0 mm 0.00 in0.0 mm
06:40 AM 70.5°F21.4°C 66.8°F19.3°C 88% 2.3 mph NE3.7 kmh NE 3.5 mph5.6 kmh 29.85 in1010.8 mb - 0.00 in0.0 mm 0.00 in0.0 mm
06:50 AM 70.6°F21.4°C 66.9°F19.4°C 88% 1.2 mph NE1.9 kmh NE 2.3 mph3.7 kmh 29.87 in1011.5 mb - 0.00 in0.0 mm 0.00 in0.0 mm
07:00 AM 71.2°F21.8°C 67.8°F19.9°C 89% 2.3 mph ENE3.7 kmh ENE 3.5 mph5.6 kmh 29.87 in1011.5 mb - 0.00 in0.0 mm 0.00 in0.0 mm
07:10 AM 72.1°F22.3°C 68.7°F20.4°C 89% 3.5 mph NE5.6 kmh NE 4.6 mph7.4 kmh 29.87 in1011.5 mb - 0.00 in0.0 mm 0.00 in0.0 mm
07:20 AM 72.4°F22.4°C 68.3°F20.2°C 87% 2.3 mph E3.7 kmh E 4.6 mph7.4 kmh 29.87 in1011.5 mb - 0.00 in0.0 mm 0.00 in0.0 mm
07:30 AM 72.7°F22.6°C 68.3°F20.2°C 86% 2.3 mph E3.7 kmh E 3.5 mph5.6 kmh 29.87 in1011.5 mb - 0.00 in0.0 mm 0.00 in0.0 mm
07:40 AM 73.0°F22.8°C 68.2°F20.1°C 85% 2.3 mph E3.7 kmh E 3.5 mph5.6 kmh 29.87 in1011.5 mb - 0.00 in0.0 mm 0.00 in0.0 mm
07:50 AM 73.7°F23.2°C 68.9°F20.5°C 85% 2.3 mph ESE3.7 kmh ESE 6.9 mph11.1 kmh 29.88 in1011.9 mb - 0.00 in0.0 mm 0.00 in0.0 mm
08:00 AM 74.7°F23.7°C 69.2°F20.7°C 83% 3.5 mph ESE5.6 kmh ESE 8.1 mph13.0 kmh 29.87 in1011.5 mb - 0.00 in0.0 mm 0.00 in0.0 mm
08:10 AM 75.8°F24.3°C 69.2°F20.7°C 80% 4.6 mph E7.4 kmh E 4.6 mph7.4 kmh 29.87 in1011.5 mb - 0.00 in0.0 mm 0.00 in0.0 mm
08:20 AM 77.0°F25.0°C 69.7°F20.9°C 78% 3.5 mph E5.6 kmh E 6.9 mph11.1 kmh 29.87 in1011.5 mb - 0.00 in0.0 mm 0.00 in0.0 mm
08:30 AM 77.9°F25.5°C 68.5°F20.3°C 73% 3.5 mph E5.6 kmh E 4.6 mph7.4 kmh 29.86 in1011.2 mb - 0.00 in0.0 mm 0.00 in0.0 mm
08:40 AM 78.5°F25.8°C 68.7°F20.4°C 72% 3.5 mph ESE5.6 kmh ESE 6.9 mph11.1 kmh 29.87 in1011.5 mb - 0.00 in0.0 mm 0.00 in0.0 mm
08:50 AM 79.3°F26.3°C 69.5°F20.8°C 72% 2.3 mph E3.7 kmh E 6.9 mph11.1 kmh 29.86 in1011.2 mb - 0.00 in0.0 mm 0.00 in0.0 mm
09:00 AM 80.5°F26.9°C 69.4°F20.8°C 69% 2.3 mph ENE3.7 kmh ENE 3.5 mph5.6 kmh 29.86 in1011.2 mb - 0.00 in0.0 mm 0.00 in0.0 mm
09:10 AM 81.6°F27.6°C 69.6°F20.9°C 67% 3.5 mph ENE5.6 kmh ENE 5.8 mph9.3 kmh 29.86 in1011.2 mb - 0.00 in0.0 mm 0.00 in0.0 mm
09:20 AM 82.9°F28.3°C 69.9°F21.1°C 65% 2.3 mph E3.7 kmh E 3.5 mph5.6 kmh 29.86 in1011.2 mb - 0.00 in0.0 mm 0.00 in0.0 mm
09:30 AM 84.5°F29.2°C 69.6°F20.9°C 61% 1.2 mph E1.9 kmh E 1.2 mph1.9 kmh 29.86 in1011.2 mb - 0.00 in0.0 mm 0.00 in0.0 mm
09:40 AM 86.6°F30.3°C 69.5°F20.8°C 57% Calm Calm -- 29.86 in1011.2 mb - 0.00 in0.0 mm 0.00 in0.0 mm
09:50 AM 88.6°F31.4°C 69.8°F21.0°C 54% Calm Calm -- 29.86 in1011.2 mb - 0.00 in0.0 mm 0.00 in0.0 mm
10:00 AM 90.1°F32.3°C 69.0°F20.6°C 50% Calm Calm -- 29.86 in1011.2 mb - 0.00 in0.0 mm 0.00 in0.0 mm
10:10 AM 91.7°F33.2°C 69.2°F20.7°C 48% 2.3 mph ESE3.7 kmh ESE 3.5 mph5.6 kmh 29.86 in1011.2 mb - 0.00 in0.0 mm 0.00 in0.0 mm
10:20 AM 92.5°F33.6°C 69.3°F20.7°C 47% 3.5 mph SE5.6 kmh SE 5.8 mph9.3 kmh 29.86 in1011.2 mb - 0.00 in0.0 mm 0.00 in0.0 mm
10:30 AM 93.7°F34.3°C 69.2°F20.7°C 45% Calm Calm 2.3 mph3.7 kmh 29.85 in1010.8 mb - 0.00 in0.0 mm 0.00 in0.0 mm
10:40 AM 94.4°F34.7°C 69.1°F20.6°C 44% 2.3 mph E3.7 kmh E 8.1 mph13.0 kmh 29.85 in1010.8 mb - 0.00 in0.0 mm 0.00 in0.0 mm
10:50 AM 93.6°F34.2°C 68.4°F20.2°C 44% 4.6 mph E7.4 kmh E 5.8 mph9.3 kmh 29.84 in1010.5 mb - 0.00 in0.0 mm 0.00 in0.0 mm
11:00 AM 93.1°F33.9°C 68.6°F20.3°C 45% 5.8 mph E9.3 kmh E 10.4 mph16.7 kmh 29.84 in1010.5 mb - 0.00 in0.0 mm 0.00 in0.0 mm
11:10 AM 93.1°F33.9°C 69.3°F20.7°C 46% 4.6 mph E7.4 kmh E 9.2 mph14.8 kmh 29.84 in1010.5 mb - 0.00 in0.0 mm 0.00 in0.0 mm
11:20 AM 92.4°F33.6°C 68.6°F20.3°C 46% 5.8 mph E9.3 kmh E 11.5 mph18.5 kmh 29.84 in1010.5 mb - 0.00 in0.0 mm 0.00 in0.0 mm
11:30 AM 91.5°F33.1°C 69.0°F20.6°C 48% 3.5 mph E5.6 kmh E 8.1 mph13.0 kmh 29.84 in1010.5 mb - 0.00 in0.0 mm 0.00 in0.0 mm
11:40 AM 91.1°F32.8°C 68.7°F20.4°C 48% 5.8 mph E9.3 kmh E 8.1 mph13.0 kmh 29.84 in1010.5 mb - 0.00 in0.0 mm 0.00 in0.0 mm
11:50 AM 90.3°F32.4°C 68.6°F20.3°C 49% 5.8 mph ENE9.3 kmh ENE 9.2 mph14.8 kmh 29.84 in1010.5 mb - 0.00 in0.0 mm 0.00 in0.0 mm
12:00 PM 89.9°F32.2°C 68.8°F20.4°C 50% 4.6 mph ENE7.4 kmh ENE 6.9 mph11.1 kmh 29.83 in1010.2 mb - 0.00 in0.0 mm 0.00 in0.0 mm
12:10 PM 89.7°F32.1°C 69.1°F20.6°C 51% 5.8 mph ENE9.3 kmh ENE 10.4 mph16.7 kmh 29.83 in1010.2 mb - 0.00 in0.0 mm 0.00 in0.0 mm
12:20 PM 89.3°F31.8°C 68.2°F20.1°C 50% 3.5 mph E5.6 kmh E 9.2 mph14.8 kmh 29.83 in1010.2 mb - 0.00 in0.0 mm 0.00 in0.0 mm
12:30 PM 87.9°F31.1°C 67.5°F19.7°C 51% 5.8 mph ENE9.3 kmh ENE 11.5 mph18.5 kmh 29.83 in1010.2 mb - 0.00 in0.0 mm 0.00 in0.0 mm
12:40 PM 86.5°F30.3°C 67.9°F19.9°C 54% 5.8 mph ENE9.3 kmh ENE 8.1 mph13.0 kmh 29.83 in1010.2 mb - 0.00 in0.0 mm 0.00 in0.0 mm
12:50 PM 86.3°F30.2°C 68.2°F20.1°C 55% 6.9 mph E11.1 kmh E 13.8 mph22.2 kmh 29.83 in1010.2 mb - 0.00 in0.0 mm 0.00 in0.0 mm
01:00 PM 86.4°F30.2°C 68.3°F20.2°C 55% 8.1 mph ENE13.0 kmh ENE 12.7 mph20.4 kmh 29.83 in1010.2 mb - 0.00 in0.0 mm 0.00 in0.0 mm
01:10 PM 86.3°F30.2°C 68.2°F20.1°C 55% 3.5 mph E5.6 kmh E 4.6 mph7.4 kmh 29.83 in1010.2 mb - 0.00 in0.0 mm 0.00 in0.0 mm
01:20 PM 86.7°F30.4°C 68.0°F20.0°C 54% 5.8 mph E9.3 kmh E 8.1 mph13.0 kmh 29.83 in1010.2 mb - 0.00 in0.0 mm 0.00 in0.0 mm
01:30 PM 86.8°F30.4°C 67.6°F19.8°C 53% 4.6 mph E7.4 kmh E 10.4 mph16.7 kmh 29.82 in1009.8 mb - 0.00 in0.0 mm 0.00 in0.0 mm
01:40 PM 86.5°F30.3°C 67.9°F19.9°C 54% 5.8 mph ENE9.3 kmh ENE 12.7 mph20.4 kmh 29.82 in1009.8 mb - 0.00 in0.0 mm 0.00 in0.0 mm
01:50 PM 86.8°F30.4°C 68.7°F20.4°C 55% 5.8 mph E9.3 kmh E 8.1 mph13.0 kmh 29.82 in1009.8 mb - 0.00 in0.0 mm 0.00 in0.0 mm
02:00 PM 87.5°F30.8°C 68.3°F20.2°C 53% 4.6 mph E7.4 kmh E 6.9 mph11.1 kmh 29.82 in1009.8 mb - 0.00 in0.0 mm 0.00 in0.0 mm
02:10 PM 87.5°F30.8°C 68.8°F20.4°C 54% 3.5 mph E5.6 kmh E 8.1 mph13.0 kmh 29.82 in1009.8 mb - 0.00 in0.0 mm 0.00 in0.0 mm
02:20 PM 87.7°F30.9°C 68.4°F20.2°C 53% 5.8 mph E9.3 kmh E 9.2 mph14.8 kmh 29.82 in1009.8 mb - 0.00 in0.0 mm 0.00 in0.0 mm
02:30 PM 86.8°F30.4°C 68.2°F20.1°C 54% 5.8 mph NE9.3 kmh NE 11.5 mph18.5 kmh 29.82 in1009.8 mb - 0.00 in0.0 mm 0.00 in0.0 mm
02:40 PM 86.0°F30.0°C 68.5°F20.3°C 56% 2.3 mph NE3.7 kmh NE 6.9 mph11.1 kmh 29.81 in1009.5 mb - 0.00 in0.0 mm 0.00 in0.0 mm
02:50 PM 85.8°F29.9°C 68.3°F20.2°C 56% 3.5 mph E5.6 kmh E 8.1 mph13.0 kmh 29.81 in1009.5 mb - 0.00 in0.0 mm 0.00 in0.0 mm
03:00 PM 85.5°F29.7°C 68.0°F20.0°C 56% 3.5 mph E5.6 kmh E 6.9 mph11.1 kmh 29.81 in1009.5 mb - 0.00 in0.0 mm 0.00 in0.0 mm
03:10 PM 84.6°F29.2°C 67.2°F19.6°C 56% 3.5 mph ENE5.6 kmh ENE 3.5 mph5.6 kmh 29.81 in1009.5 mb - 0.00 in0.0 mm 0.00 in0.0 mm
03:20 PM 83.8°F28.8°C 67.0°F19.4°C 57% 4.6 mph NE7.4 kmh NE 6.9 mph11.1 kmh 29.81 in1009.5 mb - 0.00 in0.0 mm 0.00 in0.0 mm
03:30 PM 82.3°F27.9°C 67.0°F19.4°C 60% 6.9 mph NE11.1 kmh NE 10.4 mph16.7 kmh 29.80 in1009.1 mb - 0.00 in0.0 mm 0.00 in0.0 mm
03:40 PM 81.3°F27.4°C 66.6°F19.2°C 61% 6.9 mph NE11.1 kmh NE 9.2 mph14.8 kmh 29.80 in1009.1 mb - 0.00 in0.0 mm 0.00 in0.0 mm
03:50 PM 80.9°F27.2°C 66.7°F19.3°C 62% 4.6 mph NE7.4 kmh NE 10.4 mph16.7 kmh 29.80 in1009.1 mb - 0.00 in0.0 mm 0.00 in0.0 mm
04:00 PM 80.7°F27.1°C 67.0°F19.4°C 63% 4.6 mph NE7.4 kmh NE 8.1 mph13.0 kmh 29.80 in1009.1 mb - 0.00 in0.0 mm 0.00 in0.0 mm
04:10 PM 80.3°F26.8°C 66.6°F19.2°C 63% 3.5 mph NE5.6 kmh NE 6.9 mph11.1 kmh 29.79 in1008.8 mb - 0.00 in0.0 mm 0.00 in0.0 mm
04:20 PM 80.3°F26.8°C 67.0°F19.4°C 64% 6.9 mph ENE11.1 kmh ENE 11.5 mph18.5 kmh 29.79 in1008.8 mb - 0.00 in0.0 mm 0.00 in0.0 mm
04:30 PM 80.1°F26.7°C 66.4°F19.1°C 63% 2.3 mph ENE3.7 kmh ENE 3.5 mph5.6 kmh 29.79 in1008.8 mb - 0.00 in0.0 mm 0.00 in0.0 mm
04:40 PM 80.2°F26.8°C 66.9°F19.4°C 64% 4.6 mph NE7.4 kmh NE 8.1 mph13.0 kmh 29.79 in1008.8 mb - 0.00 in0.0 mm 0.00 in0.0 mm
04:50 PM 80.1°F26.7°C 66.8°F19.3°C 64% 3.5 mph NNE5.6 kmh NNE 4.6 mph7.4 kmh 29.78 in1008.5 mb - 0.00 in0.0 mm 0.00 in0.0 mm
05:00 PM 80.2°F26.8°C 66.5°F19.2°C 63% 3.5 mph NE5.6 kmh NE 6.9 mph11.1 kmh 29.79 in1008.8 mb - 0.00 in0.0 mm 0.00 in0.0 mm
05:10 PM 80.2°F26.8°C 66.5°F19.2°C 63% 2.3 mph NE3.7 kmh NE 5.8 mph9.3 kmh 29.79 in1008.8 mb - 0.00 in0.0 mm 0.00 in0.0 mm
05:20 PM 80.2°F26.8°C 66.5°F19.2°C 63% 3.5 mph N5.6 kmh N 5.8 mph9.3 kmh 29.79 in1008.8 mb - 0.00 in0.0 mm 0.00 in0.0 mm
05:30 PM 80.0°F26.7°C 66.7°F19.3°C 64% 4.6 mph NE7.4 kmh NE 4.6 mph7.4 kmh 29.79 in1008.8 mb - 0.00 in0.0 mm 0.00 in0.0 mm
05:40 PM 79.6°F26.4°C 66.4°F19.1°C 64% 2.3 mph NE3.7 kmh NE 3.5 mph5.6 kmh 29.79 in1008.8 mb - 0.00 in0.0 mm 0.00 in0.0 mm
05:50 PM 79.5°F26.4°C 66.3°F19.1°C 64% 2.3 mph NE3.7 kmh NE 4.6 mph7.4 kmh 29.79 in1008.8 mb - 0.00 in0.0 mm 0.00 in0.0 mm
06:00 PM 79.4°F26.3°C 66.6°F19.2°C 65% 4.6 mph ENE7.4 kmh ENE 6.9 mph11.1 kmh 29.79 in1008.8 mb - 0.00 in0.0 mm 0.00 in0.0 mm
06:10 PM 79.4°F26.3°C 66.6°F19.2°C 65% 2.3 mph E3.7 kmh E 3.5 mph5.6 kmh 29.79 in1008.8 mb - 0.00 in0.0 mm 0.00 in0.0 mm
06:20 PM 79.4°F26.3°C 66.2°F19.0°C 64% 3.5 mph E5.6 kmh E 4.6 mph7.4 kmh 29.79 in1008.8 mb - 0.00 in0.0 mm 0.00 in0.0 mm
06:30 PM 79.3°F26.3°C 66.1°F18.9°C 64% 3.5 mph E5.6 kmh E 5.8 mph9.3 kmh 29.79 in1008.8 mb - 0.00 in0.0 mm 0.00 in0.0 mm
06:40 PM 78.8°F26.0°C 65.1°F18.4°C 63% 3.5 mph E5.6 kmh E 3.5 mph5.6 kmh 29.80 in1009.1 mb - 0.00 in0.0 mm 0.00 in0.0 mm
06:50 PM 78.3°F25.7°C 64.7°F18.2°C 63% 3.5 mph E5.6 kmh E 5.8 mph9.3 kmh 29.80 in1009.1 mb - 0.00 in0.0 mm 0.00 in0.0 mm
07:00 PM 77.7°F25.4°C 64.5°F18.1°C 64% 3.5 mph ESE5.6 kmh ESE 8.1 mph13.0 kmh 29.80 in1009.1 mb - 0.00 in0.0 mm 0.00 in0.0 mm
07:10 PM 77.0°F25.0°C 64.4°F18.0°C 65% 3.5 mph E5.6 kmh E 5.8 mph9.3 kmh 29.80 in1009.1 mb - 0.00 in0.0 mm 0.00 in0.0 mm
07:20 PM 76.5°F24.7°C 63.9°F17.7°C 65% 3.5 mph E5.6 kmh E 6.9 mph11.1 kmh 29.80 in1009.1 mb - 0.00 in0.0 mm 0.00 in0.0 mm
07:30 PM 76.0°F24.4°C 63.8°F17.7°C 66% 4.6 mph E7.4 kmh E 6.9 mph11.1 kmh 29.81 in1009.5 mb - 0.00 in0.0 mm 0.00 in0.0 mm
07:40 PM 75.4°F24.1°C 63.7°F17.6°C 67% 3.5 mph E5.6 kmh E 6.9 mph11.1 kmh 29.81 in1009.5 mb - 0.00 in0.0 mm 0.00 in0.0 mm
07:50 PM 74.8°F23.8°C 63.5°F17.5°C 68% 2.3 mph E3.7 kmh E 4.6 mph7.4 kmh 29.81 in1009.5 mb - 0.00 in0.0 mm 0.00 in0.0 mm
08:00 PM 74.3°F23.5°C 63.9°F17.7°C 70% 2.3 mph SE3.7 kmh SE 4.6 mph7.4 kmh 29.82 in1009.8 mb - 0.00 in0.0 mm 0.00 in0.0 mm
08:10 PM 73.7°F23.2°C 63.7°F17.6°C 71% 3.5 mph SE5.6 kmh SE 5.8 mph9.3 kmh 29.82 in1009.8 mb - 0.00 in0.0 mm 0.00 in0.0 mm
08:20 PM 73.3°F22.9°C 63.3°F17.4°C 71% 2.3 mph SE3.7 kmh SE 2.3 mph3.7 kmh 29.82 in1009.8 mb - 0.00 in0.0 mm 0.00 in0.0 mm
08:30 PM 72.9°F22.7°C 63.3°F17.4°C 72% 3.5 mph SE5.6 kmh SE 5.8 mph9.3 kmh 29.83 in1010.2 mb - 0.00 in0.0 mm 0.00 in0.0 mm
08:40 PM 72.5°F22.5°C 63.4°F17.4°C 73% 1.2 mph ESE1.9 kmh ESE 3.5 mph5.6 kmh 29.83 in1010.2 mb - 0.00 in0.0 mm 0.00 in0.0 mm
08:50 PM 72.2°F22.3°C 63.4°F17.4°C 74% 1.2 mph E1.9 kmh E 3.5 mph5.6 kmh 29.83 in1010.2 mb - 0.00 in0.0 mm 0.00 in0.0 mm
09:00 PM 71.9°F22.2°C 63.6°F17.6°C 75% 1.2 mph SE1.9 kmh SE 3.5 mph5.6 kmh 29.83 in1010.2 mb - 0.00 in0.0 mm 0.00 in0.0 mm
09:10 PM 71.6°F22.0°C 64.0°F17.8°C 77% 2.3 mph ESE3.7 kmh ESE 5.8 mph9.3 kmh 29.83 in1010.2 mb - 0.00 in0.0 mm 0.00 in0.0 mm
09:20 PM 71.2°F21.8°C 64.0°F17.8°C 78% 1.2 mph SE1.9 kmh SE 3.5 mph5.6 kmh 29.84 in1010.5 mb - 0.00 in0.0 mm 0.00 in0.0 mm
09:30 PM 70.8°F21.6°C 64.0°F17.8°C 79% 1.2 mph SE1.9 kmh SE 2.3 mph3.7 kmh 29.83 in1010.2 mb - 0.00 in0.0 mm 0.00 in0.0 mm
09:40 PM 70.5°F21.4°C 64.0°F17.8°C 80% 1.2 mph SE1.9 kmh SE 3.5 mph5.6 kmh 29.83 in1010.2 mb - 0.00 in0.0 mm 0.00 in0.0 mm
09:50 PM 70.2°F21.2°C 63.7°F17.6°C 80% 1.2 mph ESE1.9 kmh ESE 1.2 mph1.9 kmh 29.84 in1010.5 mb - 0.00 in0.0 mm 0.00 in0.0 mm
10:00 PM 69.9°F21.1°C 63.8°F17.7°C 81% 2.3 mph SE3.7 kmh SE 3.5 mph5.6 kmh 29.84 in1010.5 mb - 0.00 in0.0 mm 0.00 in0.0 mm
10:10 PM 69.6°F20.9°C 63.5°F17.5°C 81% 1.2 mph SSE1.9 kmh SSE 3.5 mph5.6 kmh 29.84 in1010.5 mb - 0.00 in0.0 mm 0.00 in0.0 mm
10:20 PM 69.3°F20.7°C 63.2°F17.3°C 81% 1.2 mph S1.9 kmh S 1.2 mph1.9 kmh 29.84 in1010.5 mb - 0.00 in0.0 mm 0.00 in0.0 mm
10:30 PM 68.9°F20.5°C 62.8°F17.1°C 81% Calm Calm 1.2 mph1.9 kmh 29.83 in1010.2 mb - 0.00 in0.0 mm 0.00 in0.0 mm
10:40 PM 68.7°F20.4°C 62.9°F17.2°C 82% Calm Calm 1.2 mph1.9 kmh 29.83 in1010.2 mb - 0.00 in0.0 mm 0.00 in0.0 mm
10:50 PM 68.4°F20.2°C 62.7°F17.1°C 82% 1.2 mph SSE1.9 kmh SSE 2.3 mph3.7 kmh 29.84 in1010.5 mb - 0.00 in0.0 mm 0.00 in0.0 mm
11:00 PM 68.1°F20.1°C 62.7°F17.1°C 83% 1.2 mph SSE1.9 kmh SSE 3.5 mph5.6 kmh 29.84 in1010.5 mb - 0.00 in0.0 mm 0.00 in0.0 mm
11:10 PM 67.9°F19.9°C 62.5°F16.9°C 83% 1.2 mph SSE1.9 kmh SSE 3.5 mph5.6 kmh 29.84 in1010.5 mb - 0.00 in0.0 mm 0.00 in0.0 mm
11:20 PM 67.7°F19.8°C 62.3°F16.8°C 83% Calm Calm 1.2 mph1.9 kmh 29.84 in1010.5 mb - 0.00 in0.0 mm 0.00 in0.0 mm
11:30 PM 67.4°F19.7°C 62.1°F16.7°C 83% Calm Calm 1.2 mph1.9 kmh 29.84 in1010.5 mb - 0.00 in0.0 mm 0.00 in0.0 mm
11:40 PM 67.3°F19.6°C 62.3°F16.8°C 84% 1.2 mph SE1.9 kmh SE 2.3 mph3.7 kmh 29.84 in1010.5 mb - 0.00 in0.0 mm 0.00 in0.0 mm
11:50 PM 67.2°F19.6°C 62.2°F16.8°C 84% 1.2 mph SE1.9 kmh SE 2.3 mph3.7 kmh 29.84 in1010.5 mb - 0.00 in0.0 mm 0.00 in0.0 mm